Time;durP1;ratioP1;P1;durP2;ratioP2;P2;SDS_P1;SDS_P2;PMS_P1;PMS_P2;Temp;Humidity;BMP_temperature;BMP_pressure;BME280_temperature;BME280_humidity;BME280_pressure;Samples;Min_cycle;Max_cycle;Signal;HPM_P1;HPM_P2
2022/11/10 00:00:57;;;;;;;3.28;2.90;;;12.00;99.90;;;;;;5977668;23;20195;-76
2022/11/10 00:03:27;;;;;;;3.30;3.00;;;12.10;99.90;;;;;;5975467;23;20195;-76
2022/11/10 00:05:55;;;;;;;6.57;3.30;;;12.00;99.90;;;;;;5960087;23;20249;-76
2022/11/10 00:08:22;;;;;;;4.03;2.97;;;12.00;99.90;;;;;;5977767;23;20442;-76
2022/11/10 00:11:00;;;;;;;3.75;2.78;;;12.10;99.90;;;;;;5971884;23;20794;-77
2022/11/10 00:13:31;;;;;;;4.45;3.33;;;12.00;99.90;;;;;;5967786;23;20641;-76
2022/11/10 00:18:45;;;;;;;4.03;2.83;;;12.00;99.90;;;;;;5968504;23;20196;-76
2022/11/10 00:21:14;;;;;;;3.85;3.03;;;12.00;99.90;;;;;;5963783;23;20233;-76
2022/11/10 00:23:41;;;;;;;4.45;3.13;;;11.90;99.90;;;;;;5964284;23;20195;-77
2022/11/10 00:26:14;;;;;;;5.40;3.15;;;11.90;99.90;;;;;;5962136;23;20238;-76
2022/11/10 00:28:42;;;;;;;3.90;3.17;;;11.90;99.90;;;;;;5973583;23;20521;-77
2022/11/10 00:31:10;;;;;;;4.30;2.90;;;11.90;99.90;;;;;;5969322;23;20198;-76
2022/11/10 00:33:38;;;;;;;5.43;3.13;;;11.80;99.90;;;;;;5961079;23;20219;-76
2022/11/10 00:36:07;;;;;;;5.32;3.30;;;11.80;99.90;;;;;;5964813;23;20207;-77
2022/11/10 00:38:35;;;;;;;5.25;2.90;;;11.80;99.90;;;;;;5963563;23;20279;-77
2022/11/10 00:41:03;;;;;;;4.70;2.90;;;11.80;99.90;;;;;;5967012;23;20743;-76
2022/11/10 00:43:30;;;;;;;5.00;2.80;;;11.80;99.90;;;;;;5976470;23;20820;-76
2022/11/10 00:45:59;;;;;;;5.30;3.05;;;11.80;99.90;;;;;;5985694;23;20240;-76
2022/11/10 00:48:26;;;;;;;6.03;3.03;;;11.80;99.90;;;;;;5980476;23;20190;-76
2022/11/10 00:50:54;;;;;;;3.50;2.97;;;11.70;99.90;;;;;;5975573;23;20557;-76
2022/11/10 00:53:22;;;;;;;5.90;3.05;;;11.60;99.90;;;;;;5962165;23;20222;-76
2022/11/10 00:55:50;;;;;;;4.45;2.92;;;11.60;99.90;;;;;;5975728;24;20202;-76
2022/11/10 00:58:17;;;;;;;4.18;3.08;;;11.60;99.90;;;;;;5986198;23;20278;-77
2022/11/10 01:00:44;;;;;;;5.60;3.42;;;11.60;99.90;;;;;;5967779;23;20196;-76
2022/11/10 01:03:15;;;;;;;4.10;2.75;;;11.60;99.90;;;;;;5953649;23;20251;-76
2022/11/10 01:05:43;;;;;;;6.13;3.20;;;11.60;99.90;;;;;;5952552;23;20199;-76
2022/11/10 01:08:11;;;;;;;4.82;3.15;;;11.50;99.90;;;;;;5967736;23;20213;-76
2022/11/10 01:10:39;;;;;;;7.55;3.58;;;11.50;99.90;;;;;;5980099;23;20226;-76
2022/11/10 01:13:06;;;;;;;5.95;2.90;;;11.50;99.90;;;;;;5972092;23;20218;-77
2022/11/10 01:15:34;;;;;;;6.78;2.72;;;11.50;99.90;;;;;;5964161;23;20225;-77
2022/11/10 01:18:01;;;;;;;3.85;3.00;;;11.50;99.90;;;;;;5960657;23;21701;-77
2022/11/10 01:20:30;;;;;;;5.15;2.78;;;11.50;99.90;;;;;;5978074;23;20253;-76
2022/11/10 01:22:57;;;;;;;4.72;2.92;;;11.50;99.90;;;;;;5950317;23;20209;-76
2022/11/10 01:25:24;;;;;;;10.02;2.80;;;11.50;99.90;;;;;;5956821;23;20191;-76
2022/11/10 01:27:51;;;;;;;4.68;3.42;;;11.50;99.90;;;;;;5979928;23;20257;-76
2022/11/10 01:30:19;;;;;;;6.32;2.83;;;11.50;99.90;;;;;;5960553;23;20222;-77
2022/11/10 01:32:46;;;;;;;4.13;3.08;;;11.50;99.90;;;;;;5974165;23;20227;-76
2022/11/10 01:35:13;;;;;;;3.20;2.75;;;11.40;99.90;;;;;;5960902;23;20545;-76
2022/11/10 01:37:44;;;;;;;5.28;2.92;;;11.40;99.90;;;;;;5979176;23;20349;-76
2022/11/10 01:40:11;;;;;;;5.07;3.22;;;11.40;99.90;;;;;;5960320;23;20203;-76
2022/11/10 01:42:45;;;;;;;6.07;3.50;;;11.30;99.90;;;;;;5964718;23;20195;-76
2022/11/10 01:45:44;;;;;;;5.35;2.85;;;11.60;99.90;;;;;;5967619;23;20566;-76
2022/11/10 01:48:16;;;;;;;5.38;2.95;;;11.40;99.90;;;;;;5976921;23;20235;-76
2022/11/10 01:50:45;;;;;;;4.82;3.45;;;11.30;99.90;;;;;;5964443;23;20202;-76
2022/11/10 01:53:20;;;;;;;5.70;3.78;;;11.40;99.90;;;;;;5963649;23;20342;-77
2022/11/10 01:55:48;;;;;;;5.28;3.78;;;11.40;99.90;;;;;;5958116;23;20290;-76
2022/11/10 01:58:19;;;;;;;6.90;3.30;;;11.40;99.90;;;;;;5950596;23;20241;-76
2022/11/10 02:00:46;;;;;;;5.43;3.80;;;11.40;99.90;;;;;;5972207;23;20257;-76
2022/11/10 02:03:18;;;;;;;6.45;3.92;;;11.30;99.90;;;;;;5952471;23;20199;-76
2022/11/10 02:05:46;;;;;;;8.30;4.68;;;11.30;99.90;;;;;;5961609;23;20601;-76
2022/11/10 02:08:16;;;;;;;6.13;4.30;;;11.30;99.90;;;;;;5958801;23;20582;-76
2022/11/10 02:10:44;;;;;;;5.45;3.92;;;11.20;99.90;;;;;;5993732;23;20205;-76
2022/11/10 02:13:12;;;;;;;6.50;4.53;;;11.20;99.90;;;;;;5966103;23;20253;-76
2022/11/10 02:15:39;;;;;;;7.97;4.30;;;11.10;99.90;;;;;;5967053;23;20539;-76
2022/11/10 02:18:06;;;;;;;7.85;4.28;;;11.10;99.90;;;;;;5939266;23;20612;-76
2022/11/10 02:20:34;;;;;;;7.07;4.47;;;11.10;99.90;;;;;;5951507;24;20218;-76
2022/11/10 02:23:14;;;;;;;12.73;4.13;;;11.00;99.90;;;;;;5974792;23;20241;-76
2022/11/10 02:25:41;;;;;;;7.30;4.03;;;11.00;99.90;;;;;;5958120;23;20198;-76
2022/11/10 02:28:09;;;;;;;7.72;5.03;;;11.00;99.90;;;;;;5978636;23;20888;-76
2022/11/10 02:30:36;;;;;;;7.63;4.30;;;10.90;99.90;;;;;;5980634;23;20195;-76
2022/11/10 02:33:03;;;;;;;5.90;4.15;;;10.90;99.90;;;;;;5961301;23;20298;-76
2022/11/10 02:35:32;;;;;;;6.60;5.20;;;10.90;99.90;;;;;;5995508;23;20231;-76
2022/11/10 02:37:59;;;;;;;7.90;4.82;;;10.90;99.90;;;;;;5954106;23;20195;-76
2022/11/10 02:40:28;;;;;;;7.05;4.63;;;10.80;99.90;;;;;;5957974;23;20618;-76
2022/11/10 02:42:55;;;;;;;8.07;4.60;;;10.80;99.90;;;;;;5967477;23;21343;-76
2022/11/10 02:45:22;;;;;;;8.02;4.75;;;10.80;99.90;;;;;;5953791;23;20663;-76
2022/11/10 02:47:50;;;;;;;11.20;4.90;;;10.80;99.90;;;;;;5963131;23;20216;-76
2022/11/10 02:50:18;;;;;;;6.97;4.15;;;10.80;99.90;;;;;;5964276;23;20277;-76
2022/11/10 02:52:45;;;;;;;6.20;4.25;;;10.80;99.90;;;;;;5953981;23;20207;-76
2022/11/10 02:55:12;;;;;;;6.68;4.60;;;10.70;99.90;;;;;;5955159;23;20202;-76
2022/11/10 02:57:41;;;;;;;7.47;4.85;;;10.70;99.90;;;;;;5964003;23;20195;-76
2022/11/10 03:00:10;;;;;;;6.50;5.03;;;10.70;99.90;;;;;;5962339;23;20850;-76
2022/11/10 03:02:37;;;;;;;6.80;4.50;;;10.70;99.90;;;;;;5963411;23;20241;-76
2022/11/10 03:05:05;;;;;;;9.32;4.80;;;10.70;99.90;;;;;;5970046;23;20214;-76
2022/11/10 03:07:32;;;;;;;6.43;4.30;;;10.60;99.90;;;;;;5975050;23;20232;-76
2022/11/10 03:09:59;;;;;;;7.45;5.00;;;10.60;99.90;;;;;;5968641;23;20206;-76
2022/11/10 03:12:28;;;;;;;7.95;5.03;;;10.70;99.90;;;;;;5965212;23;20550;-76
2022/11/10 03:14:57;;;;;;;7.32;5.10;;;10.60;99.90;;;;;;5963508;23;20695;-76
2022/11/10 03:17:25;;;;;;;6.63;4.70;;;10.60;99.90;;;;;;5968217;23;20202;-76
2022/11/10 03:19:53;;;;;;;7.97;4.30;;;10.60;99.90;;;;;;5982209;23;20197;-76
2022/11/10 03:22:20;;;;;;;6.60;5.05;;;10.60;99.90;;;;;;5977603;23;20720;-76
2022/11/10 03:24:47;;;;;;;7.63;4.65;;;10.50;99.90;;;;;;5970677;23;20194;-76
2022/11/10 03:27:14;;;;;;;10.02;5.50;;;10.50;99.90;;;;;;5976500;23;20213;-76
2022/11/10 03:29:41;;;;;;;10.32;4.90;;;10.50;99.90;;;;;;5978608;23;20198;-76
2022/11/10 03:32:10;;;;;;;10.95;5.60;;;10.50;99.90;;;;;;5961525;23;20225;-76
2022/11/10 03:34:37;;;;;;;8.15;5.13;;;10.50;99.90;;;;;;5976706;23;20571;-76
2022/11/10 03:37:04;;;;;;;5.93;4.72;;;10.50;99.90;;;;;;5961636;23;20263;-76
2022/11/10 03:39:31;;;;;;;4.90;4.40;;;10.50;99.90;;;;;;5980289;23;20194;-76
2022/11/10 03:41:59;;;;;;;8.63;4.55;;;10.50;99.90;;;;;;5970668;23;20198;-76
2022/11/10 03:44:27;;;;;;;5.22;4.30;;;10.50;99.90;;;;;;5967261;23;20226;-76
2022/11/10 03:46:57;;;;;;;6.07;4.32;;;10.40;99.90;;;;;;5986738;23;20544;-75
2022/11/10 03:49:26;;;;;;;14.02;4.90;;;10.40;99.90;;;;;;5950370;24;20207;-76
2022/11/10 03:51:53;;;;;;;5.65;4.38;;;10.40;99.90;;;;;;5963304;23;20236;-76
2022/11/10 03:54:20;;;;;;;8.32;4.63;;;10.40;99.90;;;;;;5967067;23;20242;-76
2022/11/10 03:56:47;;;;;;;7.65;4.43;;;10.60;99.90;;;;;;5962548;23;20223;-76
2022/11/10 03:59:14;;;;;;;7.85;4.88;;;10.30;99.90;;;;;;5997896;23;20694;-76
2022/11/10 04:01:42;;;;;;;6.15;4.20;;;10.30;99.90;;;;;;5971510;23;20203;-76
2022/11/10 04:08:57;;;;;;;10.45;5.30;;;10.30;99.90;;;;;;5975448;23;20201;-76
2022/11/10 04:09:43;;;;;;;8.70;4.68;;;10.30;99.90;;;;;;5965447;23;20281;-76
2022/11/10 04:17:54;;;;;;;5.15;4.40;;;10.30;99.90;;;;;;5972409;23;20194;-76
2022/11/10 04:20:21;;;;;;;7.28;4.65;;;10.20;99.90;;;;;;5970741;23;20286;-76
2022/11/10 04:26:27;;;;;;;6.60;4.22;;;10.20;99.90;;;;;;5964250;23;20205;-75
2022/11/10 04:28:22;;;;;;;10.05;4.78;;;10.20;99.90;;;;;;5977185;23;20269;-75
2022/11/10 04:30:49;;;;;;;5.85;4.68;;;10.20;99.90;;;;;;5967102;23;20197;-76
2022/11/10 04:33:16;;;;;;;6.10;4.38;;;10.10;99.90;;;;;;5976742;23;20278;-76
2022/11/10 04:35:43;;;;;;;8.18;4.25;;;10.10;99.90;;;;;;5980060;23;20278;-76
2022/11/10 04:38:12;;;;;;;6.93;4.20;;;10.10;99.90;;;;;;5967884;23;20206;-76
2022/11/10 04:40:40;;;;;;;6.95;4.65;;;10.00;99.90;;;;;;5976338;23;20274;-76
2022/11/10 04:43:07;;;;;;;7.78;5.40;;;10.00;99.90;;;;;;5983096;23;20726;-76
2022/11/10 04:45:35;;;;;;;6.70;4.50;;;10.00;99.90;;;;;;5966653;23;20218;-75
2022/11/10 04:48:02;;;;;;;5.30;4.50;;;10.00;99.90;;;;;;5976102;23;20314;-76
2022/11/10 04:50:29;;;;;;;4.97;4.13;;;10.00;99.90;;;;;;5970007;23;20230;-76
2022/11/10 04:52:56;;;;;;;9.15;4.60;;;10.00;99.90;;;;;;5975973;23;20244;-76
2022/11/10 04:55:25;;;;;;;6.75;4.32;;;9.90;99.90;;;;;;5992469;23;20798;-76
2022/11/10 04:57:52;;;;;;;7.20;4.28;;;9.90;99.90;;;;;;5980973;23;20194;-76
2022/11/10 05:00:20;;;;;;;7.85;5.00;;;9.90;99.90;;;;;;5971475;23;20645;-76
2022/11/10 05:02:47;;;;;;;6.45;4.35;;;9.80;99.90;;;;;;5956250;23;20202;-76
2022/11/10 05:05:14;;;;;;;6.93;4.28;;;9.80;99.90;;;;;;5987050;23;20646;-76
2022/11/10 05:07:41;;;;;;;8.77;4.40;;;9.80;99.90;;;;;;5969774;23;20277;-76
2022/11/10 05:10:09;;;;;;;6.45;4.40;;;9.80;99.90;;;;;;5971309;23;20277;-75
2022/11/10 05:12:38;;;;;;;5.03;3.90;;;9.80;99.90;;;;;;5955797;23;20219;-76
2022/11/10 05:15:06;;;;;;;7.55;4.45;;;9.80;99.90;;;;;;5956007;23;20214;-76
2022/11/10 05:17:33;;;;;;;5.53;4.15;;;9.80;99.90;;;;;;5970754;23;20202;-77
2022/11/10 05:20:00;;;;;;;5.22;4.18;;;9.80;99.90;;;;;;5960271;23;20699;-76
2022/11/10 05:22:27;;;;;;;6.57;3.90;;;9.70;99.90;;;;;;5973067;23;20683;-76
2022/11/10 05:24:56;;;;;;;6.00;4.32;;;9.70;99.90;;;;;;5972744;23;20225;-76
2022/11/10 05:27:23;;;;;;;4.88;4.10;;;9.60;99.90;;;;;;5965758;23;20731;-76
2022/11/10 05:29:52;;;;;;;8.63;4.88;;;9.60;99.90;;;;;;5975244;23;20318;-76
2022/11/10 05:32:19;;;;;;;5.38;4.28;;;9.60;99.90;;;;;;5951686;23;20558;-75
2022/11/10 05:34:46;;;;;;;4.70;3.95;;;9.60;99.90;;;;;;5958097;23;20715;-77
2022/11/10 05:37:14;;;;;;;6.00;5.00;;;9.50;99.90;;;;;;5959849;23;20321;-78
2022/11/10 05:39:42;;;;;;;7.90;3.83;;;9.60;99.90;;;;;;5959722;23;20194;-76
2022/11/10 05:42:09;;;;;;;7.47;4.32;;;9.70;99.90;;;;;;5973192;23;20214;-76
2022/11/10 05:44:37;;;;;;;11.32;4.60;;;9.80;99.90;;;;;;5972955;23;20192;-78
2022/11/10 05:47:07;;;;;;;5.75;3.90;;;9.90;99.90;;;;;;5966873;23;20199;-77
2022/11/10 05:49:34;;;;;;;8.60;4.57;;;9.90;99.90;;;;;;5967170;23;20195;-77
2022/11/10 05:52:02;;;;;;;5.68;4.25;;;9.90;99.90;;;;;;5954988;23;20265;-75
2022/11/10 05:54:29;;;;;;;6.32;4.68;;;9.80;99.90;;;;;;5971171;23;20344;-75
2022/11/10 05:56:56;;;;;;;5.25;4.32;;;9.80;99.90;;;;;;5975212;23;20205;-75
2022/11/10 05:59:23;;;;;;;6.43;4.53;;;9.80;99.90;;;;;;5950920;23;20202;-75
2022/11/10 06:01:50;;;;;;;7.18;4.95;;;9.70;99.90;;;;;;5950922;23;20230;-76
2022/11/10 06:04:20;;;;;;;9.77;5.47;;;9.70;99.90;;;;;;5950052;23;20190;-76
2022/11/10 06:06:47;;;;;;;10.70;5.55;;;9.70;99.90;;;;;;5960357;23;20676;-75
2022/11/10 06:09:15;;;;;;;7.50;4.80;;;9.60;99.90;;;;;;5979318;23;20198;-76
2022/11/10 06:11:43;;;;;;;7.22;5.88;;;9.60;99.90;;;;;;5960989;23;20269;-78
2022/11/10 06:14:10;;;;;;;6.72;4.70;;;9.60;99.90;;;;;;5955039;23;20297;-82
2022/11/10 06:16:37;;;;;;;9.48;4.78;;;9.50;99.90;;;;;;5967449;23;20221;-75
2022/11/10 06:19:04;;;;;;;7.05;4.70;;;9.50;99.90;;;;;;5959230;23;20256;-75
2022/11/10 06:21:34;;;;;;;5.72;4.70;;;9.50;99.90;;;;;;5948467;23;20595;-75
2022/11/10 06:24:01;;;;;;;6.68;4.18;;;9.50;99.90;;;;;;5955684;23;20194;-74
2022/11/10 06:26:28;;;;;;;5.15;4.30;;;9.40;99.90;;;;;;5964121;23;20273;-75
2022/11/10 06:28:56;;;;;;;7.15;4.10;;;9.50;99.90;;;;;;5957558;23;20647;-75
2022/11/10 06:31:23;;;;;;;6.57;4.18;;;9.50;99.90;;;;;;5967395;23;20240;-75
2022/11/10 06:33:50;;;;;;;6.72;4.63;;;9.50;99.90;;;;;;5958783;23;20197;-75
2022/11/10 06:36:18;;;;;;;4.82;4.25;;;9.50;99.90;;;;;;5968172;23;20195;-75
2022/11/10 06:38:47;;;;;;;5.60;3.88;;;9.50;99.90;;;;;;5965257;23;20215;-75
2022/11/10 06:41:14;;;;;;;5.63;3.78;;;9.50;99.90;;;;;;5949715;23;20194;-75
2022/11/10 06:43:41;;;;;;;4.53;3.25;;;9.50;99.90;;;;;;5955302;23;20208;-76
2022/11/10 06:46:08;;;;;;;4.43;4.00;;;9.60;99.90;;;;;;5969436;23;20191;-75
2022/11/10 06:48:35;;;;;;;4.82;3.83;;;9.60;99.90;;;;;;5971955;23;20198;-75
2022/11/10 06:51:03;;;;;;;7.00;3.80;;;9.60;99.90;;;;;;5964049;23;20182;-75
2022/11/10 06:53:30;;;;;;;6.45;3.90;;;9.60;99.90;;;;;;5949293;23;20199;-75
2022/11/10 06:55:59;;;;;;;7.05;3.42;;;9.60;99.90;;;;;;5954824;23;20279;-75
2022/11/10 06:58:26;;;;;;;4.40;3.33;;;9.70;99.90;;;;;;5953432;23;20266;-75
2022/11/10 07:00:54;;;;;;;6.65;3.67;;;9.70;99.90;;;;;;5960057;23;20199;-75
2022/11/10 07:03:21;;;;;;;4.20;2.95;;;9.80;99.90;;;;;;5961780;23;20206;-75
2022/11/10 07:05:48;;;;;;;3.83;2.63;;;9.80;99.90;;;;;;5972389;23;20197;-75
2022/11/10 07:08:16;;;;;;;5.38;3.25;;;9.90;99.90;;;;;;5960871;23;20233;-75
2022/11/10 07:10:43;;;;;;;3.75;2.70;;;9.90;99.90;;;;;;5964821;23;20277;-75
2022/11/10 07:13:12;;;;;;;5.03;3.10;;;10.00;99.90;;;;;;5971431;23;20210;-75
2022/11/10 07:15:39;;;;;;;3.00;2.80;;;10.10;99.90;;;;;;5960257;23;20211;-75
2022/11/10 07:18:06;;;;;;;4.32;2.85;;;10.20;99.90;;;;;;5974019;23;20209;-75
2022/11/10 07:20:35;;;;;;;3.00;2.65;;;10.30;99.90;;;;;;5955856;24;20281;-75
2022/11/10 07:23:04;;;;;;;3.83;3.00;;;10.40;99.90;;;;;;5977539;23;20195;-75
2022/11/10 07:25:34;;;;;;;5.60;2.85;;;10.60;99.90;;;;;;5987429;23;20189;-76
2022/11/10 07:28:03;;;;;;;3.58;2.55;;;11.00;99.90;;;;;;5974601;23;20187;-75
2022/11/10 07:30:33;;;;;;;4.93;3.03;;;11.50;99.90;;;;;;5958988;23;20195;-75
2022/11/10 07:33:01;;;;;;;3.55;2.75;;;12.00;99.90;;;;;;5955342;23;20925;-77
2022/11/10 07:35:30;;;;;;;6.07;3.03;;;12.30;99.90;;;;;;5975121;23;20255;-74
2022/11/10 07:37:58;;;;;;;5.30;3.65;;;12.50;99.90;;;;;;5960592;23;20499;-74
2022/11/10 07:40:25;;;;;;;5.40;2.73;;;12.70;99.90;;;;;;5949079;23;20192;-74
2022/11/10 07:42:52;;;;;;;3.63;2.80;;;12.80;99.90;;;;;;5964987;23;20944;-74
2022/11/10 07:45:21;;;;;;;5.80;3.13;;;12.90;99.90;;;;;;5964870;23;20428;-74
2022/11/10 07:47:50;;;;;;;3.53;2.95;;;12.70;99.90;;;;;;5971515;23;20514;-74
2022/11/10 07:50:21;;;;;;;4.15;2.75;;;12.30;99.90;;;;;;5948013;23;20242;-74
2022/11/10 07:52:48;;;;;;;4.05;3.22;;;12.10;99.90;;;;;;5960875;23;20245;-74
2022/11/10 07:55:15;;;;;;;6.72;3.38;;;12.00;99.90;;;;;;5967412;23;20215;-74
2022/11/10 07:57:42;;;;;;;6.05;2.78;;;11.90;99.90;;;;;;5977210;23;20187;-74
2022/11/10 08:00:11;;;;;;;5.43;3.35;;;11.90;99.90;;;;;;5959126;23;20191;-74
2022/11/10 08:02:39;;;;;;;4.70;3.00;;;12.00;99.90;;;;;;5975413;24;20241;-74
2022/11/10 08:05:09;;;;;;;5.40;2.67;;;12.20;99.90;;;;;;5954400;23;20222;-74
2022/11/10 08:07:37;;;;;;;6.27;3.23;;;12.50;99.90;;;;;;5959632;23;20645;-74
2022/11/10 08:10:05;;;;;;;4.50;2.50;;;12.90;99.90;;;;;;5959105;23;20436;-74
2022/11/10 08:12:33;;;;;;;3.57;2.40;;;13.50;99.90;;;;;;5952034;23;21250;-75
2022/11/10 08:15:00;;;;;;;3.00;2.70;;;14.00;99.90;;;;;;5961730;23;20458;-74
2022/11/10 08:17:27;;;;;;;4.07;2.40;;;14.40;99.90;;;;;;5975464;23;20521;-75
2022/11/10 08:19:54;;;;;;;4.00;2.10;;;14.90;99.90;;;;;;5973865;23;20441;-75
2022/11/10 08:22:23;;;;;;;3.00;2.00;;;15.40;99.90;;;;;;5951306;24;20759;-74
2022/11/10 08:24:50;;;;;;;3.80;2.37;;;15.90;99.90;;;;;;5971312;23;20442;-75
2022/11/10 08:27:17;;;;;;;4.07;2.70;;;16.00;99.90;;;;;;5962899;23;20448;-75
2022/11/10 08:29:46;;;;;;;5.17;2.77;;;16.20;99.90;;;;;;5957919;23;20529;-75
2022/11/10 08:32:13;;;;;;;3.43;2.20;;;16.40;99.90;;;;;;5969119;23;20530;-75
2022/11/10 08:34:40;;;;;;;3.60;2.20;;;16.50;99.90;;;;;;5973797;23;20509;-75
2022/11/10 08:37:08;;;;;;;3.43;2.50;;;16.60;99.90;;;;;;5962748;23;20445;-75
2022/11/10 08:39:36;;;;;;;2.80;2.60;;;16.90;99.90;;;;;;5971527;23;20537;-75
2022/11/10 08:42:05;;;;;;;3.70;3.03;;;17.10;99.90;;;;;;5969046;23;20444;-75
2022/11/10 08:44:32;;;;;;;3.73;2.87;;;17.00;99.90;;;;;;5959511;23;20443;-75
2022/11/10 08:46:59;;;;;;;4.13;3.53;;;17.10;99.90;;;;;;5954280;23;20502;-75
2022/11/10 08:49:28;;;;;;;4.83;3.40;;;17.10;99.90;;;;;;5975393;23;20433;-75
2022/11/10 08:51:55;;;;;;;2.73;2.53;;;17.20;99.90;;;;;;5959982;23;20447;-75
2022/11/10 08:54:22;;;;;;;2.93;2.63;;;17.40;99.90;;;;;;5976144;24;20820;-75
2022/11/10 08:56:51;;;;;;;4.43;3.10;;;17.70;99.90;;;;;;5954821;23;20551;-75
2022/11/10 08:59:18;;;;;;;4.83;2.60;;;18.20;99.90;;;;;;5961064;23;20497;-76
2022/11/10 09:01:45;;;;;;;3.50;2.60;;;18.70;99.90;;;;;;5949515;23;20435;-75
2022/11/10 09:04:14;;;;;;;3.57;2.70;;;19.20;99.90;;;;;;5950283;23;20521;-75
2022/11/10 09:06:41;;;;;;;4.30;3.17;;;19.60;99.90;;;;;;5960937;23;20448;-75
2022/11/10 09:09:09;;;;;;;2.97;2.27;;;19.80;99.90;;;;;;5977850;23;20887;-75
2022/11/10 09:11:36;;;;;;;3.73;2.20;;;20.20;99.90;;;;;;5966887;23;20504;-75
2022/11/10 09:14:05;;;;;;;2.30;1.87;;;20.60;99.90;;;;;;5968419;23;20442;-75
2022/11/10 09:16:32;;;;;;;3.73;1.93;;;20.90;99.90;;;;;;5956713;23;20543;-75
2022/11/10 09:19:00;;;;;;;3.00;1.67;;;21.10;99.90;;;;;;5961766;23;20948;-75
2022/11/10 09:21:27;;;;;;;3.03;1.53;;;21.30;99.90;;;;;;5961611;23;20441;-75
2022/11/10 09:23:54;;;;;;;2.90;1.60;;;21.20;99.90;;;;;;5953106;23;20431;-76
2022/11/10 09:26:21;;;;;;;2.60;1.83;;;21.10;99.90;;;;;;5957832;23;20445;-75
2022/11/10 09:28:49;;;;;;;1.87;1.60;;;20.90;99.90;;;;;;5976837;23;20729;-75
2022/11/10 09:31:18;;;;;;;2.93;1.73;;;20.80;99.90;;;;;;5971737;23;20497;-75
2022/11/10 09:33:45;;;;;;;3.10;1.97;;;20.90;99.90;;;;;;5976240;23;20934;-76
2022/11/10 09:36:13;;;;;;;2.57;2.03;;;21.00;99.90;;;;;;5961346;23;20497;-76
2022/11/10 09:38:40;;;;;;;2.90;1.70;;;21.10;99.90;;;;;;5954656;23;20435;-76
2022/11/10 09:41:11;;;;;;;2.43;1.73;;;20.90;99.90;;;;;;5956881;23;20485;-76
2022/11/10 09:43:43;;;;;;;2.70;1.80;;;20.50;99.90;;;;;;5951013;23;20430;-76
2022/11/10 09:46:16;;;;;;;3.40;1.80;;;20.30;99.90;;;;;;5951043;23;20446;-76
2022/11/10 09:48:50;;;;;;;2.43;1.70;;;20.00;99.90;;;;;;5959409;23;20785;-76
2022/11/10 09:51:21;;;;;;;2.40;1.70;;;20.00;99.90;;;;;;5955528;23;20873;-76
2022/11/10 09:53:51;;;;;;;3.10;1.83;;;20.10;99.90;;;;;;5963311;23;20438;-75
2022/11/10 09:56:27;;;;;;;1.93;1.53;;;20.20;99.90;;;;;;5955342;23;20489;-76
2022/11/10 09:58:54;;;;;;;3.23;2.10;;;20.00;99.90;;;;;;5965515;23;20444;-76
2022/11/10 10:01:30;;;;;;;3.77;1.50;;;19.90;99.90;;;;;;5953013;23;20443;-76
2022/11/10 10:04:07;;;;;;;3.40;1.63;;;20.20;99.90;;;;;;5974075;23;20437;-76
2022/11/10 10:06:40;;;;;;;4.20;1.50;;;20.50;99.90;;;;;;5970679;23;20445;-76
2022/11/10 10:09:15;;;;;;;3.20;1.60;;;20.60;99.90;;;;;;5959719;23;20439;-76
2022/11/10 10:11:52;;;;;;;4.50;1.40;;;20.70;99.90;;;;;;5974261;23;20517;-76
2022/11/10 10:14:41;;;;;;;2.43;1.17;;;20.60;99.90;;;;;;5959593;23;20447;-76
2022/11/10 10:17:19;;;;;;;2.03;1.10;;;20.10;99.90;;;;;;5972204;23;20580;-75
2022/11/10 10:19:54;;;;;;;3.97;1.60;;;19.70;99.90;;;;;;5949187;23;20829;-75
2022/11/10 10:22:46;;;;;;;4.27;1.90;;;19.00;99.90;;;;;;5965627;23;20442;-76
2022/11/10 10:25:18;;;;;;;1.73;1.43;;;18.50;99.90;;;;;;5961319;23;20445;-76
2022/11/10 10:27:50;;;;;;;3.00;1.50;;;18.40;99.90;;;;;;5977958;23;21055;-76
2022/11/10 10:30:19;;;;;;;3.17;1.60;;;18.00;99.90;;;;;;5973184;23;20462;-76
2022/11/10 10:32:47;;;;;;;4.03;1.80;;;18.10;99.90;;;;;;5961868;23;20442;-76
2022/11/10 10:35:17;;;;;;;2.97;1.50;;;18.50;99.90;;;;;;5965947;23;20438;-76
2022/11/10 10:37:47;;;;;;;1.93;1.27;;;19.10;99.90;;;;;;5975154;23;20742;-76
2022/11/10 10:40:17;;;;;;;5.63;1.50;;;19.50;99.90;;;;;;5972312;23;20637;-76
2022/11/10 10:42:45;;;;;;;2.50;1.80;;;19.50;99.90;;;;;;5961795;23;21006;-76
2022/11/10 10:45:17;;;;;;;2.10;1.60;;;19.50;99.90;;;;;;5971018;23;20531;-76
2022/11/10 10:47:46;;;;;;;2.97;1.63;;;19.60;99.90;;;;;;5970053;24;20453;-76
2022/11/10 10:50:25;;;;;;;2.70;1.30;;;19.80;99.90;;;;;;5955045;23;20446;-76
2022/11/10 10:53:07;;;;;;;5.50;1.63;;;19.90;99.90;;;;;;5975066;23;20473;-76
2022/11/10 10:55:35;;;;;;;2.20;1.40;;;20.20;99.90;;;;;;5973146;23;21059;-76
2022/11/10 10:58:18;;;;;;;4.23;2.10;;;20.40;99.90;;;;;;5964864;23;20813;-76
2022/11/10 11:00:46;;;;;;;2.70;1.63;;;20.20;99.90;;;;;;5954709;23;21022;-76
2022/11/10 11:03:24;;;;;;;4.20;1.70;;;20.00;99.90;;;;;;5960089;23;20441;-77
2022/11/10 11:06:05;;;;;;;3.53;1.77;;;20.10;99.90;;;;;;5950365;23;20844;-76
2022/11/10 11:08:34;;;;;;;2.40;1.37;;;20.30;99.90;;;;;;5955895;23;20465;-76
2022/11/10 11:11:09;;;;;;;2.40;1.33;;;19.90;99.90;;;;;;5955321;23;20438;-76
2022/11/10 11:13:37;;;;;;;4.00;1.43;;;19.40;99.90;;;;;;5969890;23;20437;-76
2022/11/10 11:16:07;;;;;;;2.80;1.30;;;19.00;99.90;;;;;;5933599;24;20465;-76
2022/11/10 11:18:37;;;;;;;2.70;1.40;;;19.10;99.90;;;;;;5961222;23;20441;-76
2022/11/10 11:21:16;;;;;;;2.70;1.17;;;19.00;99.90;;;;;;5986672;23;20935;-76
2022/11/10 11:24:13;;;;;;;2.27;1.30;;;19.20;99.90;;;;;;5952264;23;20451;-75
2022/11/10 11:26:48;;;;;;;2.60;1.13;;;19.30;99.90;;;;;;5962922;23;20928;-75
2022/11/10 11:29:38;;;;;;;1.70;1.13;;;19.60;99.90;;;;;;5975605;24;20494;-76
2022/11/10 11:32:21;;;;;;;2.77;1.33;;;20.10;99.90;;;;;;5959219;23;20782;-75
2022/11/10 11:35:00;;;;;;;3.63;1.27;;;20.20;99.90;;;;;;5959099;23;20437;-75
2022/11/10 11:37:48;;;;;;;1.73;1.13;;;20.30;99.90;;;;;;5974216;23;20465;-76
2022/11/10 11:40:26;;;;;;;2.90;1.40;;;20.40;99.90;;;;;;5966396;23;21231;-76
2022/11/10 11:43:06;;;;;;;2.13;1.20;;;20.70;99.90;;;;;;5952055;23;20443;-76
2022/11/10 11:45:42;;;;;;;1.67;1.27;;;20.90;99.90;;;;;;5956065;23;20473;-75
2022/11/10 11:48:24;;;;;;;4.43;1.43;;;20.70;99.90;;;;;;5962319;23;21123;-75
2022/11/10 11:50:56;;;;;;;3.30;1.30;;;20.70;99.90;;;;;;5975052;23;20429;-75
2022/11/10 11:53:37;;;;;;;4.97;1.40;;;20.60;99.90;;;;;;5964381;23;20972;-76
2022/11/10 11:56:18;;;;;;;2.43;1.27;;;20.70;99.90;;;;;;5956931;23;20816;-75
2022/11/10 11:58:54;;;;;;;3.30;1.50;;;20.80;99.90;;;;;;5950203;23;20443;-75
2022/11/10 12:01:39;;;;;;;1.70;1.10;;;20.80;99.90;;;;;;5950184;23;20418;-76
2022/11/10 12:04:31;;;;;;;3.00;1.10;;;20.70;99.90;;;;;;5951962;24;20980;-75
2022/11/10 12:07:13;;;;;;;3.50;1.40;;;20.50;99.90;;;;;;5954083;24;20972;-76
2022/11/10 12:09:45;;;;;;;1.63;1.00;;;20.30;99.90;;;;;;5952395;23;20458;-75
2022/11/10 12:12:26;;;;;;;2.00;1.03;;;20.00;99.90;;;;;;5958108;23;20800;-75
2022/11/10 12:15:02;;;;;;;4.60;1.20;;;19.80;99.90;;;;;;5974187;23;20963;-76
2022/11/10 12:17:39;;;;;;;4.30;1.30;;;19.60;99.90;;;;;;5978401;24;20466;-76
2022/11/10 12:20:20;;;;;;;4.10;1.60;;;19.70;99.90;;;;;;5957361;23;20852;-76
2022/11/10 12:23:01;;;;;;;3.87;1.50;;;19.50;99.90;;;;;;5957761;23;20478;-76
2022/11/10 12:25:36;;;;;;;3.87;1.40;;;19.30;99.90;;;;;;5955114;23;20986;-76
2022/11/10 12:28:12;;;;;;;1.83;1.10;;;19.10;99.90;;;;;;5953949;23;20943;-76
2022/11/10 12:30:42;;;;;;;4.27;1.60;;;19.30;99.90;;;;;;5968730;23;20813;-77
2022/11/10 12:33:19;;;;;;;2.50;1.30;;;19.60;99.90;;;;;;5969186;23;20514;-76
2022/11/10 12:35:47;;;;;;;1.43;1.00;;;19.70;99.90;;;;;;5950691;23;20564;-76
2022/11/10 12:38:19;;;;;;;3.77;1.27;;;19.80;99.90;;;;;;5953524;24;20450;-76
2022/11/10 12:40:51;;;;;;;1.90;1.10;;;19.90;99.90;;;;;;5949624;23;20438;-76
2022/11/10 12:43:23;;;;;;;4.40;1.20;;;19.50;99.90;;;;;;5967440;23;20559;-75
2022/11/10 12:45:56;;;;;;;1.83;1.07;;;19.30;99.90;;;;;;5962109;23;20438;-76
2022/11/10 12:48:24;;;;;;;2.47;1.50;;;19.30;99.90;;;;;;5964814;24;20470;-76
2022/11/10 12:51:00;;;;;;;1.70;1.10;;;19.40;99.90;;;;;;5963415;23;20447;-76
2022/11/10 12:53:33;;;;;;;2.40;1.30;;;19.50;99.90;;;;;;5970202;23;20441;-76
2022/11/10 12:56:07;;;;;;;3.83;1.33;;;19.40;99.90;;;;;;5957464;23;20440;-76
2022/11/10 12:58:34;;;;;;;2.50;1.20;;;19.30;99.90;;;;;;5954768;23;20442;-76
2022/11/10 13:01:06;;;;;;;3.77;1.20;;;19.20;99.90;;;;;;5965500;23;20435;-76
2022/11/10 13:03:36;;;;;;;2.80;1.00;;;19.20;99.90;;;;;;5955375;23;20444;-77
2022/11/10 13:06:06;;;;;;;2.13;1.10;;;19.40;99.90;;;;;;5963852;23;20440;-74
2022/11/10 13:08:35;;;;;;;2.90;1.27;;;19.50;99.90;;;;;;5975771;24;20441;-76
2022/11/10 13:11:20;;;;;;;2.73;1.00;;;19.50;99.90;;;;;;5962821;23;20521;-76
2022/11/10 13:13:56;;;;;;;4.20;1.43;;;19.70;99.90;;;;;;5962531;24;20435;-76
2022/11/10 13:16:52;;;;;;;2.23;1.20;;;19.70;99.90;;;;;;5962879;23;20997;-75